Terminal Aerodrome Forecast
Issued by NWS

Home | Current Version | Previous Version | Text Only | Print | Product List | Glossary On
Versions: 1 2 3 4 5 6 7 8 9 10 11 12 13 14 15 16
000
FTUS41 KBOX 261129
TAFBED
TAF
KBED 261129Z 2612/2712 00000KT P6SM FEW250
     FM262000 19006KT P6SM FEW250
     FM270500 18006KT P6SM VCSH BKN090
     FM270700 18007KT P6SM -RA BKN050
     FM270900 18007KT P6SM -RA OVC025
     FM271100 20006KT 5SM BR VCSH OVC010=

USA.gov is the U.S. government's official web portal to all federal, state and local government web resources and services.